createdAt,value
2023-10-21T00:01:09.838Z,99868.88
2023-10-21T00:06:13.722Z,99862.13
2023-10-21T00:11:18.252Z,99847.38
2023-10-21T00:16:22.299Z,99818.22
2023-10-21T00:21:26.309Z,99799.38
2023-10-21T00:26:30.555Z,99787.69
2023-10-21T00:31:34.497Z,99780.16
2023-10-21T00:36:38.992Z,99754.91
2023-10-21T00:41:44.359Z,99761.38
2023-10-21T00:46:48.590Z,99756.31
2023-10-21T00:51:52.809Z,99725.50
2023-10-21T00:56:56.796Z,99705.06
2023-10-21T01:02:01.416Z,99687.63
2023-10-21T01:07:05.448Z,99667.50
2023-10-21T01:12:09.653Z,99676.53
2023-10-21T01:17:13.567Z,99663.91
2023-10-21T01:22:17.893Z,99579.59
2023-10-21T01:27:22.346Z,99611.31
2023-10-21T01:32:27.260Z,99592.47
2023-10-21T01:37:31.279Z,99567.66
2023-10-21T01:42:37.035Z,99553.91
2023-10-21T01:47:42.023Z,99549.09
2023-10-21T01:52:46.070Z,99525.06
2023-10-21T01:57:50.031Z,99461.22
2023-10-21T02:02:56.282Z,99479.06
2023-10-21T02:08:00.553Z,99460.25
2023-10-21T02:13:04.490Z,99436.78
2023-10-21T02:18:10.441Z,99443.69
2023-10-21T02:23:15.282Z,99428.09
2023-10-21T02:28:19.876Z,99398.13
2023-10-21T02:33:25.288Z,99386.56
2023-10-21T02:38:29.984Z,99375.16
2023-10-21T02:43:35.159Z,99354.00
2023-10-21T02:48:40.614Z,99350.34
2023-10-21T02:53:45.361Z,99317.47
2023-10-21T02:58:49.434Z,99317.22
2023-10-21T03:03:54.815Z,99284.22
2023-10-21T03:08:59.133Z,99266.78
2023-10-21T03:14:03.129Z,99242.41
2023-10-21T03:19:06.914Z,99211.31
2023-10-21T03:24:11.379Z,99214.63
2023-10-21T03:29:15.489Z,99192.75
2023-10-21T03:34:19.464Z,99192.38
2023-10-21T03:39:23.455Z,99188.03
2023-10-21T03:44:27.864Z,99172.25
2023-10-21T03:49:32.441Z,99149.75
2023-10-21T03:54:36.598Z,99145.09
2023-10-21T03:59:40.794Z,99141.84
2023-10-21T04:04:44.760Z,99121.56
2023-10-21T04:09:48.723Z,99110.28
2023-10-21T04:14:52.715Z,99057.13
2023-10-21T04:19:56.593Z,99080.88
2023-10-21T04:25:03.610Z,99080.25
2023-10-21T04:30:09.748Z,99079.06
2023-10-21T04:35:14.587Z,99057.78
2023-10-21T04:40:18.761Z,99046.47
2023-10-21T04:45:22.792Z,99041.22
2023-10-21T04:50:28.393Z,99011.03
2023-10-21T04:55:32.725Z,98971.22
2023-10-21T05:00:36.761Z,98993.66
2023-10-21T05:05:43.324Z,98973.72
2023-10-21T05:10:47.692Z,98961.28
2023-10-21T05:15:52.232Z,98955.72
2023-10-21T05:20:56.129Z,98945.63
2023-10-21T05:26:00.653Z,98919.75
2023-10-21T05:31:05.163Z,98925.31
2023-10-21T05:36:09.470Z,98914.03
2023-10-21T05:41:13.306Z,98953.34
2023-10-21T05:46:17.344Z,98914.19
2023-10-21T05:51:21.291Z,98927.28
2023-10-21T05:56:25.274Z,98897.16
2023-10-21T06:01:29.393Z,98872.09
2023-10-21T06:06:33.476Z,98859.66
2023-10-21T06:11:37.983Z,98874.91
2023-10-21T06:16:42.098Z,98874.91
2023-10-21T06:21:45.987Z,98874.22
2023-10-21T06:26:50.107Z,98834.25
2023-10-21T06:31:54.236Z,98826.41
2023-10-21T06:36:58.323Z,98812.63
2023-10-21T06:42:02.582Z,98757.00
2023-10-21T06:47:06.486Z,98782.16
2023-10-21T06:52:10.446Z,98773.97
2023-10-21T06:57:22.250Z,98769.72
2023-10-21T07:02:26.175Z,98747.56
2023-10-21T07:07:30.759Z,98733.59
2023-10-21T07:12:36.510Z,98717.28
2023-10-21T07:17:40.563Z,98706.41
2023-10-21T07:22:51.299Z,98687.84
2023-10-21T07:27:55.242Z,98683.25
2023-10-21T07:32:59.449Z,98692.75
2023-10-21T07:38:03.508Z,98676.88
2023-10-21T07:43:07.407Z,98680.97
2023-10-21T07:48:12.697Z,98673.59
2023-10-21T07:53:16.642Z,98677.72
2023-10-21T07:58:20.616Z,98681.69
2023-10-21T08:03:24.519Z,98694.16
2023-10-21T08:08:30.361Z,98702.41
2023-10-21T08:13:34.269Z,98703.97
2023-10-21T08:18:38.370Z,98724.00
2023-10-21T08:23:42.990Z,98731.94
2023-10-21T08:28:47.060Z,98732.28
2023-10-21T08:33:51.312Z,98730.50
2023-10-21T08:38:55.764Z,98731.81
2023-10-21T08:43:59.826Z,98741.63
2023-10-21T08:49:05.525Z,98744.38
2023-10-21T08:54:10.362Z,98746.13
2023-10-21T08:59:16.545Z,98741.06
2023-10-21T09:04:24.384Z,98775.88
2023-10-21T09:09:31.241Z,98786.16
2023-10-21T09:14:57.691Z,98784.81
2023-10-21T09:20:01.973Z,98743.16
2023-10-21T09:25:21.297Z,98788.78
2023-10-21T09:30:32.628Z,98769.81
2023-10-21T09:35:39.165Z,98778.75
2023-10-21T09:40:44.154Z,98783.94
2023-10-21T09:45:51.854Z,98785.38
2023-10-21T09:51:01.349Z,98804.78
2023-10-21T09:56:05.662Z,98792.97
2023-10-21T10:01:12.614Z,98810.91
2023-10-21T10:06:17.083Z,98790.38
2023-10-21T10:11:23.392Z,98816.53
2023-10-21T10:16:29.195Z,98843.72
2023-10-21T10:21:36.005Z,98829.94
2023-10-21T10:26:40.509Z,98830.06
2023-10-21T10:31:49.305Z,98834.69
2023-10-21T10:36:54.062Z,98871.38
2023-10-21T10:42:00.261Z,98863.47
2023-10-21T10:47:06.690Z,98875.91
2023-10-21T10:52:10.665Z,98895.72
2023-10-21T10:57:19.033Z,98876.44
2023-10-21T11:02:25.103Z,98895.16
2023-10-21T11:07:33.147Z,98901.88
2023-10-21T11:12:38.504Z,98970.75
2023-10-21T11:17:42.586Z,98960.13
2023-10-21T11:22:47.142Z,98974.91
2023-10-21T11:27:51.611Z,98980.91
2023-10-21T11:32:57.030Z,98992.81
2023-10-21T11:38:02.105Z,98989.25
2023-10-21T11:43:10.629Z,99013.09
2023-10-21T11:48:18.474Z,99005.28
2023-10-21T11:53:22.700Z,99013.25
2023-10-21T11:58:48.184Z,99002.84
2023-10-21T12:04:10.933Z,99011.72
2023-10-21T12:09:27.093Z,99000.34
2023-10-21T12:14:46.225Z,98995.47
2023-10-21T12:20:08.930Z,98983.53
2023-10-21T12:25:31.413Z,99031.78
2023-10-21T12:31:01.430Z,99032.06
2023-10-21T12:36:24.281Z,99030.41
2023-10-21T12:41:28.394Z,99028.50
2023-10-21T12:46:37.139Z,99033.56
2023-10-21T12:51:41.296Z,99037.81
2023-10-21T12:56:45.266Z,99018.94
2023-10-21T13:01:49.399Z,99024.25
2023-10-21T13:06:55.534Z,99053.69
2023-10-21T13:11:59.670Z,99073.25
2023-10-21T13:17:10.019Z,99073.66
2023-10-21T13:22:14.090Z,99065.25
2023-10-21T13:27:18.042Z,99077.69
2023-10-21T13:32:24.204Z,99075.34
2023-10-21T13:37:28.174Z,99068.38
2023-10-21T13:42:32.187Z,99085.63
2023-10-21T13:47:36.104Z,99064.75
2023-10-21T13:52:40.984Z,99105.53
2023-10-21T13:57:47.328Z,99121.78
2023-10-21T14:02:51.488Z,99134.44
2023-10-21T14:07:55.879Z,99137.09
2023-10-21T14:13:00.051Z,99157.44
2023-10-21T14:18:08.862Z,99165.41
2023-10-21T14:23:16.155Z,99181.34
2023-10-21T14:28:20.861Z,99219.41
2023-10-21T14:34:05.687Z,99230.63
2023-10-21T14:39:09.598Z,99249.97
2023-10-21T14:44:13.733Z,99266.88
2023-10-21T14:49:17.574Z,99282.94
2023-10-21T14:54:21.653Z,99277.16
2023-10-21T14:59:26.698Z,99287.75
2023-10-21T15:04:31.092Z,99332.13
2023-10-21T15:09:35.185Z,99336.63
2023-10-21T15:14:48.423Z,99351.38
2023-10-21T15:19:53.108Z,99362.47
2023-10-21T15:24:57.018Z,99381.47
2023-10-21T15:30:01.834Z,99397.03
2023-10-21T15:35:08.333Z,99410.97
2023-10-21T15:40:15.230Z,99427.59
2023-10-21T15:45:19.274Z,99461.69
2023-10-21T15:50:23.258Z,99476.78
2023-10-21T15:55:27.885Z,99471.28
2023-10-21T16:00:32.028Z,99510.31
2023-10-21T16:05:36.723Z,99510.56
2023-10-21T16:10:41.894Z,99537.78
2023-10-21T16:15:45.820Z,99536.66
2023-10-21T16:20:49.828Z,99560.44
2023-10-21T16:25:53.879Z,99572.81
2023-10-21T16:30:57.832Z,99592.72
2023-10-21T16:36:03.828Z,99609.44
2023-10-21T16:41:10.530Z,99630.81
2023-10-21T16:46:14.620Z,99638.59
2023-10-21T16:51:18.591Z,99660.19
2023-10-21T16:56:22.591Z,99662.66
2023-10-21T17:01:27.511Z,99669.53
2023-10-21T17:06:33.005Z,99669.75
2023-10-21T17:11:38.239Z,99699.72
2023-10-21T17:16:42.893Z,99714.16
2023-10-21T17:21:47.122Z,99738.22
2023-10-21T17:26:51.834Z,99756.91
2023-10-21T17:31:55.927Z,99785.03
2023-10-21T17:37:00.314Z,99794.16
2023-10-21T17:42:04.906Z,99805.59
2023-10-21T17:47:08.957Z,99812.84
2023-10-21T17:52:14.078Z,99852.91
2023-10-21T17:57:18.024Z,99861.94
2023-10-21T18:02:22.241Z,99863.28
2023-10-21T18:07:26.133Z,99897.50
2023-10-21T18:12:30.292Z,99919.56
2023-10-21T18:17:35.279Z,99932.28
2023-10-21T18:22:39.340Z,99950.25
2023-10-21T18:27:43.538Z,99975.53
2023-10-21T18:32:48.461Z,99967.00
2023-10-21T18:37:58.939Z,99989.53
2023-10-21T18:43:03.090Z,99994.91
2023-10-21T18:48:07.496Z,100008.97
2023-10-21T18:53:11.732Z,100021.59
2023-10-21T18:58:16.013Z,100031.97
2023-10-21T19:03:20.298Z,100042.41
2023-10-21T19:08:25.845Z,100048.91
2023-10-21T19:13:29.687Z,100065.66
2023-10-21T19:18:33.750Z,100081.41
2023-10-21T19:23:38.291Z,100096.94
2023-10-21T19:28:42.370Z,100113.53
2023-10-21T19:33:47.027Z,100119.34
2023-10-21T19:38:53.053Z,100133.13
2023-10-21T19:44:00.065Z,100147.84
2023-10-21T19:49:08.814Z,100164.22
2023-10-21T19:54:13.061Z,100169.66
2023-10-21T19:59:17.117Z,100181.28
2023-10-21T20:04:21.393Z,100179.78
2023-10-21T20:09:25.375Z,100166.84
2023-10-21T20:14:29.532Z,100177.09
2023-10-21T20:19:33.796Z,100169.69
2023-10-21T20:24:38.564Z,100181.72
2023-10-21T20:29:42.821Z,100185.97
2023-10-21T20:34:46.911Z,100198.00
2023-10-21T20:39:51.231Z,100198.84
2023-10-21T20:44:55.546Z,100200.59
2023-10-21T20:49:59.790Z,100169.88
2023-10-21T20:55:03.749Z,100174.56
2023-10-21T21:00:12.983Z,100230.03
2023-10-21T21:05:17.034Z,100232.69
2023-10-21T21:10:22.888Z,100228.63
2023-10-21T21:15:28.163Z,100236.88
2023-10-21T21:20:32.185Z,100249.75
2023-10-21T21:25:36.131Z,100244.47
2023-10-21T21:30:40.212Z,100258.28
2023-10-21T21:36:13.754Z,100262.63
2023-10-21T21:41:22.622Z,100266.88
2023-10-21T21:46:26.489Z,100231.97
2023-10-21T21:51:31.067Z,100263.97
2023-10-21T21:56:35.380Z,100256.19
2023-10-21T22:01:39.330Z,100247.66
2023-10-21T22:06:44.197Z,100258.69
2023-10-21T22:11:49.539Z,100250.09
2023-10-21T22:16:53.899Z,100277.06
2023-10-21T22:21:57.950Z,100270.78
2023-10-21T22:27:03.069Z,100280.31
2023-10-21T22:32:08.368Z,100274.66
2023-10-21T22:37:12.322Z,100277.81
2023-10-21T22:42:16.148Z,100288.94
2023-10-21T22:47:20.125Z,100284.59
2023-10-21T22:52:24.077Z,100283.84
2023-10-21T22:57:27.902Z,100266.03
2023-10-21T23:02:32.088Z,100281.91
2023-10-21T23:07:38.259Z,100275.16
2023-10-21T23:12:42.388Z,100282.09
2023-10-21T23:17:48.099Z,100275.97
2023-10-21T23:22:53.100Z,100278.41
2023-10-21T23:27:58.478Z,100275.59
2023-10-21T23:33:02.484Z,100276.34
2023-10-21T23:38:06.945Z,100259.84
2023-10-21T23:43:13.585Z,100266.06
2023-10-21T23:48:17.534Z,100269.75
2023-10-21T23:53:21.701Z,100273.22
2023-10-21T23:58:25.567Z,100264.13
